• Join FlightAware (Why Join?)
  • Login
  • US Flag 
07:45AM EDT


 

Airport Tracker/Info


-or-


 

Live Flight TrackerFlight Track Log ✈ SWA2278 ✈ 11-Apr-2013 ✈ KHOU - KBNA

Flight Track Log - Related Links

Times and Time Zones

All times are in EDT time to prevent confusion due to time zone crossing. See the SWA2278 flight status page for this flight to view local times or setup timezone preferences in your user account.

Time Position Orientation Groundspeed Altitude Reporting Facility
EDT Latitude Longitude Course Direction KTS MPH feet Rate Location/Type
12:04PM 29.6497 -95.2850 347° North 356 410 300  Level Houston Center
12:04PM 29.6800 -95.2933 347° North 181 208 1,600 1,740 Climbing Houston Center
12:05PM 29.6997 -95.2922 North 200 230 2,300 2,280 Climbing Houston Center
12:06PM 29.7556 -95.2817 North 224 258 5,200 2,700 Climbing Houston Center
12:07PM 29.8156 -95.2031 49° Northeast 276 318 7,900 2,280 Climbing Houston Center
12:08PM 29.8819 -95.1583 30° Northeast 294 338 10,000 2,100 Climbing Houston Center
12:09PM 29.9811 -95.1197 19° North 329 379 12,300 1,680 Climbing Houston Center
12:10PM 30.0658 -95.0872 18° North 346 398 13,500 1,500 Climbing Houston Center
12:11PM 30.1719 -95.0442 19° North 405 466 15,500 1,920 Climbing Houston Center
12:12PM 30.2808 -95.0011 19° North 411 473 17,500 1,920 Climbing Houston Center
12:13PM 30.4169 -94.9472 19° North 434 499 19,500 1,620 Climbing Houston Center
12:14PM 30.5231 -94.9044 19° North 453 521 20,900 1,620 Climbing Houston Center
12:15PM 30.6569 -94.8128 30° Northeast 473 544 22,900 1,620 Climbing Houston Center
12:16PM 30.7675 -94.7269 34° Northeast 483 556 24,300 1,440 Climbing Houston Center
12:17PM 30.8789 -94.6403 34° Northeast 484 557 25,900 1,320 Climbing Houston Center
12:18PM 30.9931 -94.5522 33° Northeast 495 570 27,100 1,200 Climbing Houston Center
12:18PM 31.0403 -94.5161 33° Northeast 496 571 27,500 1,200 Climbing Fort Worth Center
12:19PM 31.1447 -94.4353 34° Northeast 503 579 28,700 1,140 Climbing Fort Worth Center
12:20PM 31.2781 -94.3314 34° Northeast 509 586 29,800 1,020 Climbing Fort Worth Center
12:21PM 31.3989 -94.2372 34° Northeast 509 586 30,800 1,080 Climbing Fort Worth Center
12:22PM 31.5197 -94.1431 34° Northeast 514 592 32,000 1,080 Climbing Fort Worth Center
12:23PM 31.6403 -94.0486 34° Northeast 519 597 33,000 480 Climbing Fort Worth Center
12:24PM 31.7356 -93.9472 42° Northeast 519 597 33,000  Level Fort Worth Center
12:25PM 31.8369 -93.8311 44° Northeast 509 586 33,000  Level Fort Worth Center
12:26PM 31.9419 -93.7142 43° Northeast 504 580 33,100 360 Climbing Fort Worth Center
12:27PM 32.0408 -93.5953 46° Northeast 504 580 33,800 600 Climbing Fort Worth Center
12:28PM 32.1436 -93.4756 45° Northeast 509 586 34,400 480 Climbing Fort Worth Center
12:29PM 32.2539 -93.3406 46° Northeast 517 595 34,800 300 Climbing Fort Worth Center
12:30PM 32.3606 -93.2178 44° Northeast 522 601 35,000 120 Climbing Fort Worth Center
12:31PM 32.4631 -93.0997 44° Northeast 522 601 35,100  Climbing Fort Worth Center
12:32PM 32.5633 -92.9792 45° Northeast 517 595 35,000  Descending Fort Worth Center
12:33PM 32.6675 -92.8606 44° Northeast 517 595 35,100  Climbing Fort Worth Center
12:34PM 32.7675 -92.7419 45° Northeast 517 595 35,000  Descending Fort Worth Center
12:35PM 32.8714 -92.6203 45° Northeast 517 595 35,100  Climbing Fort Worth Center
12:36PM 32.9733 -92.5008 44° Northeast 517 595 35,000 -60 Descending Fort Worth Center
12:37PM 33.0731 -92.3814 45° Northeast 517 595 35,000 -720 Level Fort Worth Center
12:39PM 33.2114 -92.2169 45° Northeast 518 596 33,300 -840 Descending Memphis Center
12:40PM 33.3133 -92.0997 44° Northeast 501 577 33,100 -120 Descending Memphis Center
12:41PM 33.4086 -91.9872 45° Northeast 490 564 33,100  Level Memphis Center
12:42PM 33.5000 -91.8694 47° Northeast 485 558 33,100  Level Memphis Center
12:43PM 33.6014 -91.7539 43° Northeast 480 552 33,100 -60 Level Memphis Center
12:44PM 33.6861 -91.6381 49° Northeast 475 547 33,000  Descending Memphis Center
12:45PM 33.7856 -91.5194 45° Northeast 475 547 33,100  Climbing Memphis Center
12:46PM 33.8806 -91.3981 47° Northeast 484 557 33,000 -60 Descending Memphis Center
12:47PM 33.9794 -91.2814 44° Northeast 484 557 33,000  Level Memphis Center
12:48PM 34.0783 -91.1622 45° Northeast 484 557 33,000  Level Memphis Center
12:49PM 34.1750 -91.0425 46° Northeast 495 570 33,000  Level Memphis Center
12:50PM 34.2717 -90.9228 46° Northeast 495 570 33,000  Level Memphis Center
12:51PM 34.3597 -90.7975 50° Northeast 495 570 33,100  Climbing Memphis Center
12:52PM 34.4250 -90.6567 61° Northeast 482 555 33,000 -60 Descending Memphis Center
12:53PM 34.4878 -90.5183 61° Northeast 468 539 33,000  Level Memphis Center
12:54PM 34.5461 -90.3925 61° Northeast 468 539 33,000 -180 Level Memphis Center
12:55PM 34.6108 -90.2486 61° Northeast 474 545 32,700 -1,080 Descending Memphis Center
12:56PM 34.6753 -90.1097 61° Northeast 474 545 30,900 -2,400 Descending Memphis Center
12:57PM 34.7375 -89.9678 62° Northeast 481 554 27,900 -1,920 Descending Memphis Center
12:58PM 34.7975 -89.8386 60° Northeast 476 548 27,100 -420 Descending Memphis Center
12:59PM 34.8678 -89.6736 63° Northeast 489 563 27,100 -60 Level Memphis Center
01:00PM 34.9461 -89.5058 60° Northeast 514 592 27,000 -60 Descending Memphis Center
01:01PM 35.0094 -89.3606 62° Northeast 501 577 27,000  Level Memphis Center
01:02PM 35.0647 -89.2358 62° Northeast 475 547 27,000  Level Memphis Center
01:03PM 35.1303 -89.0875 62° Northeast 475 547 27,100  Climbing Memphis Center
01:04PM 35.1933 -88.9417 62° Northeast 482 555 27,000 -60 Descending Memphis Center
01:05PM 35.2583 -88.7958 61° Northeast 482 555 27,000  Level Memphis Center
01:06PM 35.3211 -88.6547 61° Northeast 482 555 27,000 -720 Level Memphis Center
01:07PM 35.3836 -88.5081 62° Northeast 477 549 25,600 -1,200 Descending Memphis Center
01:08PM 35.4419 -88.3717 62° Northeast 471 542 24,700 -1,080 Descending Memphis Center
01:09PM 35.4981 -88.2378 63° Northeast 456 525 23,500 -1,260 Descending Memphis Center
01:10PM 35.5542 -88.0961 64° Northeast 431 496 22,200 -1,200 Descending Memphis Center
01:11PM 35.6100 -87.9644 62° Northeast 423 487 21,200 -1,080 Descending Memphis Center
01:12PM 35.6639 -87.8375 62° Northeast 423 487 20,100 -1,080 Descending Memphis Center
01:13PM 35.7536 -87.7503 38° Northeast 411 473 19,100 -1,320 Descending Memphis Center
01:14PM 35.8628 -87.6856 26° Northeast 411 473 17,500 -1,620 Descending Memphis Center
01:15PM 35.9678 -87.6206 27° Northeast 420 483 15,900 -1,560 Descending Memphis Center
01:16PM 36.0642 -87.5506 30° Northeast 412 474 14,400 -1,740 Descending Memphis Center
01:17PM 36.1483 -87.4886 31° Northeast 390 449 12,500 -1,800 Descending Memphis Center
01:18PM 36.2339 -87.4108 36° Northeast 385 443 10,800 -1,260 Descending Memphis Center
01:19PM 36.2794 -87.3114 60° Northeast 342 394 10,000 -840 Descending Memphis Center
01:20PM 36.2706 -87.2061 96° East 299 344 9,200 -1,500 Descending Memphis Center
01:21PM 36.2808 -87.1131 82° East 280 322 7,100 -2,400 Descending Memphis Center
01:22PM 36.2867 -87.0150 86° East 280 322 4,500 -1,560 Descending Memphis Center
01:23PM 36.2650 -86.9156 105° East 293 337 4,000 -780 Descending Memphis Center
01:24PM 36.2458 -86.8289 105° East 276 318 3,000 -600 Descending Memphis Center
01:25PM 36.2314 -86.7547 104° East 240 276 2,900 -540 Descending Memphis Center
01:26PM 36.2169 -86.6886 105° East 201 231 2,000 -660 Descending Memphis Center
01:27PM 36.1883 -86.6383 125° Southeast 184 212 1,600  Descending Memphis Center
01:28PM 36.1325 -86.6564 195° South 158 182 2,100 600 Climbing Memphis Center
01:29PM 36.0686 -86.6797 196° South 203 234 2,900 180 Climbing Memphis Center
01:30PM 36.0333 -86.6000 119° Southeast 232 267 2,700 -480 Descending Nashville TRACON
01:31PM 36.0833 -86.6333 332° Northwest 212 244 1,800 -840 Descending Nashville TRACON
01:33PM 36.1167 -86.6667 39° Northeast  Level FlightAware Approximate
01:40PM 36.1245 -86.6782 39° Northeast  Level Estimated
01:41PM 36.1245 -86.6782 39° Northeast  Level Estimated
01:42PM 36.1245 -86.6782 39° Northeast  Level Estimated
01:43PM 36.1245 -86.6782 39° Northeast  Level Estimated
01:44PM 36.1245 -86.6782 39° Northeast  Level Estimated